Time,TemperatureF,DewpointF,PressureIn,WindDirection,WindDirectionDegrees,WindSpeedMPH,WindSpeedGustMPH,Humidity,HourlyPrecipIn,Conditions,Clouds,dailyrainin,SoftwareType,DateUTC
2013-02-05 00:09:00,-999.0,-99.9,29.98,North,-999,-999.0,-999.0,-999,-99.99,,,0.00,weatherlink.com 1.10,2013-02-05 06:09:00,
2013-02-05 00:24:00,-999.0,-99.9,29.98,North,-999,-999.0,-999.0,-999,-99.99,,,0.00,weatherlink.com 1.10,2013-02-05 06:24:00,
2013-02-05 00:39:00,-999.0,-99.9,29.98,North,-999,-999.0,-999.0,-999,-99.99,,,0.00,weatherlink.com 1.10,2013-02-05 06:39:00,
2013-02-05 00:54:00,-999.0,-99.9,29.98,North,-999,-999.0,-999.0,-999,-99.99,,,0.00,weatherlink.com 1.10,2013-02-05 06:54:00,
2013-02-05 01:09:00,-999.0,-99.9,29.98,North,-999,-999.0,-999.0,-999,-99.99,,,0.00,weatherlink.com 1.10,2013-02-05 07:09:00,
2013-02-05 01:25:00,-999.0,-99.9,29.98,North,-999,-999.0,-999.0,-999,-99.99,,,0.00,weatherlink.com 1.10,2013-02-05 07:25:00,
2013-02-05 01:39:00,-999.0,-99.9,29.97,North,-999,-999.0,-999.0,-999,-99.99,,,0.00,weatherlink.com 1.10,2013-02-05 07:39:00,
2013-02-05 01:55:00,-999.0,-99.9,29.97,North,-999,-999.0,-999.0,-999,-99.99,,,0.00,weatherlink.com 1.10,2013-02-05 07:55:00,
2013-02-05 02:10:00,-999.0,-99.9,29.98,North,-999,-999.0,-999.0,-999,-99.99,,,0.00,weatherlink.com 1.10,2013-02-05 08:10:00,
2013-02-05 02:24:00,-999.0,-99.9,29.98,North,-999,-999.0,-999.0,-999,-99.99,,,0.00,weatherlink.com 1.10,2013-02-05 08:24:00,
2013-02-05 02:40:00,-999.0,-99.9,29.98,North,-999,-999.0,-999.0,-999,-99.99,,,0.00,weatherlink.com 1.10,2013-02-05 08:40:00,
2013-02-05 02:55:00,-999.0,-99.9,29.98,North,-999,-999.0,-999.0,-999,-99.99,,,0.00,weatherlink.com 1.10,2013-02-05 08:55:00,
2013-02-05 03:10:00,-999.0,-99.9,29.98,North,-999,-999.0,-999.0,-999,-99.99,,,0.00,weatherlink.com 1.10,2013-02-05 09:10:00,
2013-02-05 03:25:00,-999.0,-99.9,29.98,North,-999,-999.0,-999.0,-999,-99.99,,,0.00,weatherlink.com 1.10,2013-02-05 09:25:00,
2013-02-05 03:40:00,-999.0,-99.9,29.98,North,-999,-999.0,-999.0,-999,-99.99,,,0.00,weatherlink.com 1.10,2013-02-05 09:40:00,
2013-02-05 03:55:00,-999.0,-99.9,29.98,North,-999,-999.0,-999.0,-999,-99.99,,,0.00,weatherlink.com 1.10,2013-02-05 09:55:00,
2013-02-05 04:10:00,-999.0,-99.9,29.98,North,-999,-999.0,-999.0,-999,-99.99,,,0.00,weatherlink.com 1.10,2013-02-05 10:10:00,
2013-02-05 04:25:00,-999.0,-99.9,29.98,North,-999,-999.0,-999.0,-999,-99.99,,,0.00,weatherlink.com 1.10,2013-02-05 10:25:00,
2013-02-05 04:40:00,-999.0,-99.9,29.98,North,-999,-999.0,-999.0,-999,-99.99,,,0.00,weatherlink.com 1.10,2013-02-05 10:40:00,
2013-02-05 04:55:00,-999.0,-99.9,29.99,North,-999,-999.0,-999.0,-999,-99.99,,,0.00,weatherlink.com 1.10,2013-02-05 10:55:00,
2013-02-05 05:10:00,-999.0,-99.9,29.99,North,-999,-999.0,-999.0,-999,-99.99,,,0.00,weatherlink.com 1.10,2013-02-05 11:10:00,
2013-02-05 05:25:00,-999.0,-99.9,30.00,North,-999,-999.0,-999.0,-999,-99.99,,,0.00,weatherlink.com 1.10,2013-02-05 11:25:00,
2013-02-05 05:40:00,-999.0,-99.9,29.99,North,-999,-999.0,-999.0,-999,-99.99,,,0.00,weatherlink.com 1.10,2013-02-05 11:40:00,
2013-02-05 05:55:00,-999.0,-99.9,30.00,North,-999,-999.0,-999.0,-999,-99.99,,,0.00,weatherlink.com 1.10,2013-02-05 11:55:00,
2013-02-05 06:11:00,-999.0,-99.9,30.01,North,-999,-999.0,-999.0,-999,-99.99,,,0.00,weatherlink.com 1.10,2013-02-05 12:11:00,
2013-02-05 06:26:00,-999.0,-99.9,30.02,North,-999,-999.0,-999.0,-999,-99.99,,,0.00,weatherlink.com 1.10,2013-02-05 12:26:00,
2013-02-05 06:42:00,-999.0,-99.9,30.02,North,-999,-999.0,-999.0,-999,-99.99,,,0.00,weatherlink.com 1.10,2013-02-05 12:42:00,
2013-02-05 06:58:00,-999.0,-99.9,30.02,North,-999,-999.0,-999.0,-999,-99.99,,,0.00,weatherlink.com 1.10,2013-02-05 12:58:00,
2013-02-05 07:15:00,-999.0,-99.9,30.03,North,-999,-999.0,-999.0,-999,-99.99,,,0.00,weatherlink.com 1.10,2013-02-05 13:15:00,
2013-02-05 07:31:00,-999.0,-99.9,30.03,North,-999,-999.0,-999.0,-999,-99.99,,,0.00,weatherlink.com 1.10,2013-02-05 13:31:00,
2013-02-05 07:48:00,-999.0,-99.9,30.04,North,-999,-999.0,-999.0,-999,-99.99,,,0.00,weatherlink.com 1.10,2013-02-05 13:48:00,
2013-02-05 08:21:00,-999.0,-99.9,30.05,North,-999,-999.0,-999.0,-999,-99.99,,,0.00,weatherlink.com 1.10,2013-02-05 14:21:00,
2013-02-05 08:37:00,-999.0,-99.9,30.05,North,-999,-999.0,-999.0,-999,-99.99,,,0.00,weatherlink.com 1.10,2013-02-05 14:37:00,
2013-02-05 08:54:00,-999.0,-99.9,30.04,North,-999,-999.0,-999.0,-999,-99.99,,,0.00,weatherlink.com 1.10,2013-02-05 14:54:00,
2013-02-05 09:27:00,-999.0,-99.9,30.05,North,-999,-999.0,-999.0,-999,-99.99,,,0.00,weatherlink.com 1.10,2013-02-05 15:27:00,
2013-02-05 09:43:00,-999.0,-99.9,30.06,North,-999,-999.0,-999.0,-999,-99.99,,,0.00,weatherlink.com 1.10,2013-02-05 15:43:00,
2013-02-05 10:00:00,-999.0,-99.9,30.06,North,-999,-999.0,-999.0,-999,-99.99,,,0.00,weatherlink.com 1.10,2013-02-05 16:00:00,
2013-02-05 10:17:00,-999.0,-99.9,30.07,North,-999,-999.0,-999.0,-999,-99.99,,,0.00,weatherlink.com 1.10,2013-02-05 16:17:00,
2013-02-05 10:34:00,-999.0,-99.9,30.07,North,-999,-999.0,-999.0,-999,-99.99,,,0.00,weatherlink.com 1.10,2013-02-05 16:34:00,
2013-02-05 10:49:00,-999.0,-99.9,30.06,North,-999,-999.0,-999.0,-999,-99.99,,,0.00,weatherlink.com 1.10,2013-02-05 16:49:00,
2013-02-05 11:05:00,-999.0,-99.9,30.06,North,-999,-999.0,-999.0,-999,-99.99,,,0.00,weatherlink.com 1.10,2013-02-05 17:05:00,
2013-02-05 11:20:00,-999.0,-99.9,30.05,North,-999,-999.0,-999.0,-999,-99.99,,,0.00,weatherlink.com 1.10,2013-02-05 17:20:00,
2013-02-05 11:35:00,-999.0,-99.9,30.05,North,-999,-999.0,-999.0,-999,-99.99,,,0.00,weatherlink.com 1.10,2013-02-05 17:35:00,
2013-02-05 11:50:00,-999.0,-99.9,30.04,North,-999,-999.0,-999.0,-999,-99.99,,,0.00,weatherlink.com 1.10,2013-02-05 17:50:00,
2013-02-05 12:05:00,-999.0,-99.9,30.03,North,-999,-999.0,-999.0,-999,-99.99,,,0.00,weatherlink.com 1.10,2013-02-05 18:05:00,
2013-02-05 12:22:00,-999.0,-99.9,30.02,North,-999,-999.0,-999.0,-999,-99.99,,,0.00,weatherlink.com 1.10,2013-02-05 18:22:00,
2013-02-05 12:37:00,-999.0,-99.9,30.02,North,-999,-999.0,-999.0,-999,-99.99,,,0.00,weatherlink.com 1.10,2013-02-05 18:37:00,
2013-02-05 12:55:00,-999.0,-99.9,30.01,North,-999,-999.0,-999.0,-999,-99.99,,,0.00,weatherlink.com 1.10,2013-02-05 18:55:00,
2013-02-05 13:14:00,-999.0,-99.9,30.00,North,-999,-999.0,-999.0,-999,-99.99,,,0.00,weatherlink.com 1.10,2013-02-05 19:14:00,
2013-02-05 13:27:00,-999.0,-99.9,30.00,North,-999,-999.0,-999.0,-999,-99.99,,,0.00,weatherlink.com 1.10,2013-02-05 19:27:00,
2013-02-05 13:44:00,57.5,46.0,30.00,SW,227,3.0,-999.0,66,-99.99,,,0.00,weatherlink.com 1.10,2013-02-05 19:44:00,
2013-02-05 14:04:00,57.9,47.0,30.00,SW,217,6.0,-999.0,66,-99.99,,,0.00,weatherlink.com 1.10,2013-02-05 20:04:00,
2013-02-05 14:17:00,57.7,47.0,30.00,SSW,200,4.0,-999.0,68,-99.99,,,0.00,weatherlink.com 1.10,2013-02-05 20:17:00,
2013-02-05 14:34:00,57.9,47.0,29.99,WSW,253,2.0,-999.0,67,-99.99,,,0.00,weatherlink.com 1.10,2013-02-05 20:34:00,
2013-02-05 14:51:00,57.3,48.0,30.00,SW,225,9.0,-999.0,72,-99.99,,,0.00,weatherlink.com 1.10,2013-02-05 20:51:00,
2013-02-05 15:07:00,56.5,49.0,30.00,WSW,250,4.0,-999.0,75,-99.99,,,0.00,weatherlink.com 1.10,2013-02-05 21:07:00,
2013-02-05 15:23:00,56.0,48.0,29.99,SSW,211,2.0,-999.0,75,-99.99,,,0.00,weatherlink.com 1.10,2013-02-05 21:23:00,
2013-02-05 15:40:00,55.7,48.0,30.00,SW,225,7.0,-999.0,76,-99.99,,,0.00,weatherlink.com 1.10,2013-02-05 21:40:00,
2013-02-05 15:57:00,55.7,48.0,30.00,SSW,206,0.0,-999.0,75,-99.99,,,0.00,weatherlink.com 1.10,2013-02-05 21:57:00,
2013-02-05 16:12:00,56.0,48.0,30.01,West,269,0.0,-999.0,75,-99.99,,,0.00,weatherlink.com 1.10,2013-02-05 22:12:00,
2013-02-05 16:30:00,55.4,48.0,30.01,SSW,202,1.0,-999.0,75,-99.99,,,0.00,weatherlink.com 1.10,2013-02-05 22:30:00,
2013-02-05 16:46:00,54.5,48.0,30.01,South,184,2.0,-999.0,78,-99.99,,,0.00,weatherlink.com 1.10,2013-02-05 22:46:00,
2013-02-05 17:02:00,53.6,48.0,30.01,South,186,0.0,-999.0,80,-99.99,,,0.00,weatherlink.com 1.10,2013-02-05 23:02:00,
2013-02-05 17:18:00,52.7,47.0,30.01,South,184,0.0,-999.0,82,-99.99,,,0.00,weatherlink.com 1.10,2013-02-05 23:18:00,
2013-02-05 17:33:00,51.8,47.0,30.01,South,180,0.0,-999.0,84,-99.99,,,0.00,weatherlink.com 1.10,2013-02-05 23:33:00,
2013-02-05 17:48:00,51.1,47.0,30.02,South,180,0.0,-999.0,86,-99.99,,,0.00,weatherlink.com 1.10,2013-02-05 23:48:00,
2013-02-05 18:03:00,50.6,47.0,30.03,South,180,0.0,-999.0,88,-99.99,,,0.00,weatherlink.com 1.10,2013-02-06 00:03:00,
2013-02-05 18:18:00,50.2,47.0,30.04,South,180,0.0,-999.0,89,-99.99,,,0.00,weatherlink.com 1.10,2013-02-06 00:18:00,
2013-02-05 18:33:00,50.1,47.0,30.04,South,180,0.0,-999.0,90,-99.99,,,0.00,weatherlink.com 1.10,2013-02-06 00:33:00,
2013-02-05 18:48:00,50.0,47.0,30.04,South,180,0.0,-999.0,90,-99.99,,,0.00,weatherlink.com 1.10,2013-02-06 00:48:00,
2013-02-05 19:03:00,50.3,48.0,30.05,South,180,0.0,-999.0,91,-99.99,,,0.00,weatherlink.com 1.10,2013-02-06 01:03:00,
2013-02-05 19:18:00,50.4,48.0,30.06,SW,235,0.0,-999.0,91,-99.99,,,0.00,weatherlink.com 1.10,2013-02-06 01:18:00,
2013-02-05 19:33:00,50.5,48.0,30.06,SW,235,0.0,-999.0,91,-99.99,,,0.00,weatherlink.com 1.10,2013-02-06 01:33:00,
2013-02-05 19:48:00,50.3,48.0,30.06,SW,235,0.0,-999.0,91,-99.99,,,0.00,weatherlink.com 1.10,2013-02-06 01:48:00,
2013-02-05 20:03:00,50.2,48.0,30.07,WSW,248,0.0,-999.0,92,-99.99,,,0.00,weatherlink.com 1.10,2013-02-06 02:03:00,
2013-02-05 20:18:00,50.1,48.0,30.08,WSW,248,0.0,-999.0,92,-99.99,,,0.00,weatherlink.com 1.10,2013-02-06 02:18:00,
2013-02-05 20:33:00,50.1,48.0,30.08,WSW,248,0.0,-999.0,92,-99.99,,,0.00,weatherlink.com 1.10,2013-02-06 02:33:00,
2013-02-05 20:48:00,50.0,48.0,30.09,WSW,248,0.0,-999.0,92,-99.99,,,0.00,weatherlink.com 1.10,2013-02-06 02:48:00,
2013-02-05 21:04:00,50.0,48.0,30.09,WSW,248,0.0,-999.0,93,-99.99,,,0.00,weatherlink.com 1.10,2013-02-06 03:04:00,
2013-02-05 21:18:00,50.1,48.0,30.09,WSW,248,0.0,-999.0,92,-99.99,,,0.00,weatherlink.com 1.10,2013-02-06 03:18:00,
2013-02-05 21:33:00,50.1,48.0,30.10,WSW,248,0.0,-999.0,92,-99.99,,,0.00,weatherlink.com 1.10,2013-02-06 03:33:00,
2013-02-05 21:48:00,50.2,48.0,30.10,WSW,248,0.0,-999.0,92,-99.99,,,0.00,weatherlink.com 1.10,2013-02-06 03:48:00,
2013-02-05 22:03:00,50.1,48.0,30.10,WSW,248,0.0,-999.0,92,-99.99,,,0.00,weatherlink.com 1.10,2013-02-06 04:03:00,
2013-02-05 22:18:00,50.1,48.0,30.10,WSW,248,0.0,-999.0,92,-99.99,,,0.00,weatherlink.com 1.10,2013-02-06 04:18:00,
2013-02-05 22:33:00,50.0,48.0,30.10,WSW,248,0.0,-999.0,93,-99.99,,,0.00,weatherlink.com 1.10,2013-02-06 04:33:00,
2013-02-05 22:48:00,50.0,48.0,30.11,WSW,248,0.0,-999.0,93,-99.99,,,0.00,weatherlink.com 1.10,2013-02-06 04:48:00,
2013-02-05 23:03:00,50.0,48.0,30.11,WSW,248,0.0,-999.0,92,-99.99,,,0.00,weatherlink.com 1.10,2013-02-06 05:03:00,
2013-02-05 23:18:00,49.4,47.0,30.11,WSW,248,0.0,-999.0,92,-99.99,,,0.00,weatherlink.com 1.10,2013-02-06 05:18:00,
2013-02-05 23:33:00,49.1,47.0,30.11,WSW,248,0.0,-999.0,93,-99.99,,,0.00,weatherlink.com 1.10,2013-02-06 05:33:00,
2013-02-05 23:48:00,49.2,47.0,30.11,WSW,248,0.0,-999.0,93,-99.99,,,0.00,weatherlink.com 1.10,2013-02-06 05:48:00,